createdAt,value
2022-09-16T00:00:53.433Z,78.37
2022-09-16T00:05:53.358Z,78.46
2022-09-16T00:10:53.319Z,78.45
2022-09-16T00:15:56.368Z,78.39
2022-09-16T00:20:56.274Z,78.50
2022-09-16T00:25:56.277Z,78.82
2022-09-16T00:30:56.271Z,78.97
2022-09-16T00:35:56.272Z,79.06
2022-09-16T00:40:56.344Z,79.19
2022-09-16T00:45:56.290Z,79.36
2022-09-16T00:50:56.306Z,79.55
2022-09-16T00:55:56.330Z,79.68
2022-09-16T01:00:56.404Z,79.71
2022-09-16T01:05:56.308Z,79.93
2022-09-16T01:10:56.725Z,80.16
2022-09-16T01:15:56.335Z,80.35
2022-09-16T01:20:56.798Z,80.48
2022-09-16T01:25:56.326Z,80.50
2022-09-16T01:30:56.462Z,80.50
2022-09-16T01:35:56.326Z,80.51
2022-09-16T01:40:56.314Z,80.51
2022-09-16T01:45:56.376Z,80.52
2022-09-16T01:50:56.343Z,80.61
2022-09-16T01:55:56.327Z,80.58
2022-09-16T02:00:56.375Z,80.62
2022-09-16T02:05:56.376Z,80.80
2022-09-16T02:10:59.582Z,80.89
2022-09-16T02:15:59.374Z,80.97
2022-09-16T02:20:59.332Z,81.05
2022-09-16T02:25:59.354Z,81.16
2022-09-16T02:30:59.527Z,81.22
2022-09-16T02:35:59.364Z,81.28
2022-09-16T02:40:59.329Z,81.37
2022-09-16T02:45:59.829Z,81.46
2022-09-16T02:50:59.455Z,81.50
2022-09-16T02:55:59.348Z,81.46
2022-09-16T03:00:59.368Z,81.48
2022-09-16T03:05:59.367Z,81.50
2022-09-16T03:10:59.443Z,81.55
2022-09-16T03:15:59.872Z,81.68
2022-09-16T03:20:59.451Z,81.77
2022-09-16T03:25:59.462Z,82.00
2022-09-16T03:30:59.440Z,82.13
2022-09-16T03:35:59.488Z,82.25
2022-09-16T03:40:59.403Z,82.38
2022-09-16T03:45:59.424Z,82.49
2022-09-16T03:50:59.480Z,82.58
2022-09-16T03:55:59.418Z,82.63
2022-09-16T04:00:59.417Z,82.70
2022-09-16T04:05:59.415Z,82.76
2022-09-16T04:10:59.415Z,82.94
2022-09-16T04:15:59.437Z,83.18
2022-09-16T04:20:59.467Z,83.25
2022-09-16T04:25:59.451Z,83.36
2022-09-16T04:30:59.735Z,83.56
2022-09-16T04:35:59.419Z,83.79
2022-09-16T04:41:00.376Z,83.78
2022-09-16T04:46:00.487Z,83.68
2022-09-16T04:51:00.482Z,83.66
2022-09-16T04:56:00.459Z,83.71
2022-09-16T05:01:00.454Z,83.78
2022-09-16T05:06:00.512Z,83.78
2022-09-16T05:11:00.524Z,83.76
2022-09-16T05:16:00.632Z,83.82
2022-09-16T05:21:00.521Z,83.88
2022-09-16T05:26:00.525Z,83.95
2022-09-16T05:31:00.495Z,84.00
2022-09-16T05:36:00.462Z,83.94
2022-09-16T05:41:00.654Z,83.77
2022-09-16T05:46:00.923Z,83.74
2022-09-16T05:51:01.052Z,83.65
2022-09-16T05:56:00.473Z,83.60
2022-09-16T06:01:00.507Z,83.39
2022-09-16T06:06:00.595Z,83.39
2022-09-16T06:11:00.536Z,83.04
2022-09-16T06:16:00.618Z,83.02
2022-09-16T06:21:00.504Z,83.16
2022-09-16T06:26:01.007Z,83.16
2022-09-16T06:31:01.238Z,83.01
2022-09-16T06:36:01.493Z,82.58
2022-09-16T06:41:01.530Z,82.44
2022-09-16T06:46:01.756Z,82.08
2022-09-16T06:51:01.642Z,81.86
2022-09-16T06:56:01.901Z,81.76
2022-09-16T07:01:01.660Z,81.05
2022-09-16T07:06:01.697Z,80.37
2022-09-16T07:11:01.586Z,80.40
2022-09-16T07:16:12.748Z,80.74
2022-09-16T07:21:03.608Z,80.67
2022-09-16T07:26:03.602Z,80.06
2022-09-16T07:31:03.665Z,79.56
2022-09-16T07:36:06.666Z,79.00
2022-09-16T07:41:06.615Z,78.15
2022-09-16T07:46:06.651Z,76.34
2022-09-16T07:51:06.573Z,73.44
2022-09-16T07:56:06.680Z,70.55
2022-09-16T08:01:07.548Z,67.70
2022-09-16T08:06:07.610Z,61.33
2022-09-16T08:11:07.747Z,56.59
2022-09-16T08:16:07.771Z,51.25
2022-09-16T08:21:07.666Z,55.06
2022-09-16T08:26:09.267Z,56.86
2022-09-16T08:31:09.638Z,50.49
2022-09-16T08:36:09.662Z,54.17
2022-09-16T08:41:09.752Z,55.75
2022-09-16T08:46:10.075Z,54.96
2022-09-16T08:51:09.668Z,52.63
2022-09-16T08:56:09.654Z,45.57
2022-09-16T09:01:09.795Z,39.01
2022-09-16T09:06:09.620Z,46.64
2022-09-16T09:11:09.746Z,48.06
2022-09-16T09:16:09.741Z,38.89
2022-09-16T09:21:12.750Z,43.54
2022-09-16T09:26:13.312Z,35.90
2022-09-16T09:31:13.802Z,33.96
2022-09-16T09:36:13.677Z,41.61
2022-09-16T09:41:13.747Z,43.72
2022-09-16T09:46:13.717Z,41.91
2022-09-16T09:51:13.667Z,34.12
2022-09-16T09:56:13.912Z,38.96
2022-09-16T10:01:15.588Z,44.67
2022-09-16T10:06:15.729Z,45.30
2022-09-16T10:11:18.737Z,47.42
2022-09-16T10:16:20.250Z,49.01
2022-09-16T10:21:19.737Z,50.74
2022-09-16T10:26:20.115Z,50.68
2022-09-16T10:31:19.848Z,50.77
2022-09-16T10:36:19.700Z,51.83
2022-09-16T10:41:19.716Z,53.04
2022-09-16T10:46:19.909Z,54.12
2022-09-16T10:51:19.727Z,54.14
2022-09-16T10:56:19.947Z,52.62
2022-09-16T11:01:20.468Z,53.26
2022-09-16T11:06:20.768Z,54.55
2022-09-16T11:11:20.930Z,55.92
2022-09-16T11:16:20.851Z,57.23
2022-09-16T11:21:20.739Z,56.94
2022-09-16T11:26:20.852Z,57.21
2022-09-16T11:31:21.201Z,57.59
2022-09-16T11:36:20.776Z,57.35
2022-09-16T11:41:20.827Z,57.70
2022-09-16T11:46:22.733Z,55.68
2022-09-16T11:51:23.409Z,54.89
2022-09-16T11:56:23.838Z,54.01
2022-09-16T12:01:23.833Z,52.74
2022-09-16T12:06:23.841Z,51.18
2022-09-16T12:11:23.801Z,52.25
2022-09-16T12:16:28.115Z,53.37
2022-09-16T12:21:27.021Z,55.22
2022-09-16T12:26:26.832Z,56.86
2022-09-16T12:31:26.864Z,57.89
2022-09-16T12:36:27.020Z,58.28
2022-09-16T12:41:26.835Z,59.20
2022-09-16T12:46:27.912Z,59.81
2022-09-16T12:51:27.867Z,60.37
2022-09-16T12:56:27.833Z,61.28
2022-09-16T13:01:28.073Z,62.01
2022-09-16T13:06:27.911Z,61.80
2022-09-16T13:12:16.495Z,61.82
2022-09-16T13:16:29.888Z,61.62
2022-09-16T13:21:30.440Z,61.67
2022-09-16T13:26:29.875Z,61.76
2022-09-16T13:31:32.108Z,61.62
2022-09-16T13:36:31.854Z,60.96
2022-09-16T13:41:32.250Z,59.90
2022-09-16T13:46:32.078Z,59.14
2022-09-16T13:51:36.061Z,58.71
2022-09-16T13:56:33.952Z,57.73
2022-09-16T14:01:55.509Z,56.92
2022-09-16T14:06:35.882Z,56.52
2022-09-16T14:11:36.020Z,56.42
2022-09-16T14:16:35.882Z,56.05
2022-09-16T14:21:37.767Z,56.08
2022-09-16T14:26:37.953Z,57.04
2022-09-16T14:31:39.076Z,57.59
2022-09-16T14:36:39.971Z,57.95
2022-09-16T14:41:39.870Z,58.19
2022-09-16T14:46:39.907Z,58.36
2022-09-16T14:51:39.926Z,58.98
2022-09-16T14:56:40.008Z,58.96
2022-09-16T15:01:41.843Z,58.31
2022-09-16T15:06:41.944Z,58.33
2022-09-16T15:11:48.128Z,58.45
2022-09-16T15:16:44.930Z,58.99
2022-09-16T15:21:45.031Z,59.58
2022-09-16T15:26:48.087Z,60.22
2022-09-16T15:31:47.934Z,60.83
2022-09-16T15:36:48.459Z,61.39
2022-09-16T15:41:48.040Z,62.12
2022-09-16T15:46:48.009Z,62.22
2022-09-16T15:51:47.974Z,62.31
2022-09-16T15:56:47.951Z,62.27
2022-09-16T16:01:52.557Z,62.58
2022-09-16T16:06:50.986Z,63.38
2022-09-16T16:11:52.346Z,63.88
2022-09-16T16:17:11.682Z,64.47
2022-09-16T16:21:56.894Z,64.99
2022-09-16T16:26:57.087Z,65.41
2022-09-16T16:31:57.020Z,65.76
2022-09-16T16:36:57.015Z,66.07
2022-09-16T16:41:59.173Z,66.47
2022-09-16T16:46:59.370Z,66.72
2022-09-16T16:51:58.993Z,66.93
2022-09-16T16:56:59.013Z,67.17
2022-09-16T17:02:00.699Z,67.48
2022-09-16T17:07:25.095Z,67.71
2022-09-16T17:12:03.825Z,68.15
2022-09-16T17:17:04.704Z,68.34
2022-09-16T17:22:05.586Z,68.66
2022-09-16T17:27:05.558Z,69.01
2022-09-16T17:32:06.353Z,69.53
2022-09-16T17:37:07.933Z,69.75
2022-09-16T17:42:08.137Z,70.02
2022-09-16T17:47:08.169Z,70.33
2022-09-16T17:52:08.139Z,70.69
2022-09-16T17:57:08.046Z,71.03
2022-09-16T18:02:08.673Z,71.23
2022-09-16T18:07:10.267Z,71.56
2022-09-16T18:12:10.164Z,71.78
2022-09-16T18:17:10.272Z,72.10
2022-09-16T18:22:10.088Z,72.38
2022-09-16T18:27:10.061Z,72.60
2022-09-16T18:32:10.084Z,72.69
2022-09-16T18:37:10.500Z,72.87
2022-09-16T18:42:10.185Z,73.36
2022-09-16T18:47:10.094Z,73.62
2022-09-16T18:52:10.149Z,73.94
2022-09-16T18:57:10.195Z,73.93
2022-09-16T19:02:11.769Z,74.24
2022-09-16T19:07:12.188Z,74.61
2022-09-16T19:12:12.154Z,74.36
2022-09-16T19:17:12.513Z,74.52
2022-09-16T19:22:12.104Z,74.54
2022-09-16T19:27:12.079Z,74.82
2022-09-16T19:32:12.165Z,74.92
2022-09-16T19:37:12.168Z,75.03
2022-09-16T19:42:13.346Z,75.19
2022-09-16T19:47:13.143Z,75.41
2022-09-16T19:52:13.138Z,75.53
2022-09-16T19:57:13.178Z,75.91
2022-09-16T20:02:13.248Z,75.98
2022-09-16T20:07:15.053Z,76.11
2022-09-16T20:12:15.656Z,76.45
2022-09-16T20:17:15.177Z,76.60
2022-09-16T20:22:15.151Z,76.72
2022-09-16T20:27:15.755Z,76.64
2022-09-16T20:32:16.163Z,76.71
2022-09-16T20:37:16.188Z,76.95
2022-09-16T20:42:18.781Z,76.83
2022-09-16T20:47:19.189Z,76.86
2022-09-16T20:52:19.321Z,77.03
2022-09-16T20:57:20.219Z,77.06
2022-09-16T21:02:20.315Z,77.14
2022-09-16T21:07:20.893Z,77.15
2022-09-16T21:12:21.768Z,77.21
2022-09-16T21:17:22.199Z,77.29
2022-09-16T21:22:22.397Z,77.34
2022-09-16T21:27:22.217Z,77.40
2022-09-16T21:32:22.279Z,77.35
2022-09-16T21:37:22.264Z,77.42
2022-09-16T21:42:22.310Z,77.52
2022-09-16T21:47:22.214Z,77.60
2022-09-16T21:52:22.956Z,77.55
2022-09-16T21:57:23.251Z,77.52
2022-09-16T22:02:28.988Z,77.57
2022-09-16T22:07:27.222Z,77.54
2022-09-16T22:12:27.350Z,77.53
2022-09-16T22:17:28.317Z,77.48
2022-09-16T22:22:28.252Z,77.48
2022-09-16T22:27:28.512Z,77.49
2022-09-16T22:32:28.360Z,77.48
2022-09-16T22:37:28.228Z,77.44
2022-09-16T22:42:28.326Z,77.46
2022-09-16T22:47:28.317Z,77.42
2022-09-16T22:52:28.549Z,77.46
2022-09-16T22:57:28.265Z,77.48
2022-09-16T23:02:28.275Z,77.59
2022-09-16T23:07:30.197Z,77.72
2022-09-16T23:12:30.538Z,77.85
2022-09-16T23:17:30.316Z,78.06
2022-09-16T23:22:30.476Z,78.36
2022-09-16T23:27:30.566Z,78.44
2022-09-16T23:32:30.543Z,78.71
2022-09-16T23:37:30.515Z,78.94
2022-09-16T23:42:30.367Z,79.11
2022-09-16T23:47:33.322Z,79.21
2022-09-16T23:52:33.385Z,79.29
2022-09-16T23:57:33.324Z,79.31
